Algerita, Texas
Current Conditions -  °F | °C
As of 7:35 AM on Saturday 25 Oct 2014 (Local Time) from KBBD Reporting Station
Clear Clear  
Wind Chill: 59°   Ceiling: Unl
Heat Index: 59°   Visibility: 10mi
Dew Point: 55°   Wind: 3mph
Humidity: 88%   Direction: 240°WSW
Pressure: 30.16"   Gusts: NA
Location:  31.0718°N, 98.8001°W
Report Text: KBBD 251235Z AUTO 24003KT 10SM CLR 15/13 A3016 RMK
Loading
Personal Weather Stations






























Interactive Weather Map
Tropical Storm Tracking
New forecast layout! Learn more

10-Day Weather Forecast

Advertisements
Track Severe Weather on mobile